P. B. Shah — WDB8609 — position and weather

sailwx.info

Track history (hours):
 
Tides and Currents Weather Stations Pressure Air Temp Water Temp Dewpoint Dewpoint Depression Visibility Wind Speed Wind Dir Waves Ship Positions

P. B. Shah

Owner: INGRAM BARGE COMPANY, Nashville, TN. More information available from US FCC via Universal Licensing System and Coast Guard Vessel Documentation Center.

Last reported at 2015-Jun-29 20:21 UTC. Time now 2015-Jul-05 07:51 UTC.
Position N 30°45' W 091°26'.

Length 46 m; draft 3.1 m.

Type: Towing. MMSI: 366961480.

Date/timePositionNaut miles runAvg speedWind from/ knotsBaromVisibWave heightAir tempDewpointWater temp
2015-Jun-29 20:21N 30°45' W 091°26'3 4.0
2015-Jun-29 19:33N 30°45' W 091°22'5 4.7
2015-Jun-29 18:33N 30°40' W 091°20'4 4.0
2015-Jun-29 17:33N 30°36' W 091°18'3 2.9
2015-Jun-29 16:33N 30°34' W 091°16'3 2.9
2015-Jun-29 15:33N 30°31' W 091°16'1 1.4
2015-Jun-29 14:33N 30°30' W 091°15'3 3.0
2015-Jun-29 13:33N 30°31' W 091°12'4 4.0
2015-Jun-29 12:33N 30°27' W 091°12'0 0.1
2015-Jun-29 11:33N 30°27' W 091°12'0 0.0
2015-Jun-29 10:33N 30°27' W 091°12'0 0.0
2015-Jun-29 09:33N 30°27' W 091°12'0 0.0
2015-Jun-29 08:33N 30°27' W 091°12'0 0.0
2015-Jun-29 07:33N 30°27' W 091°12'0 0.0
2015-Jun-29 06:33N 30°27' W 091°12'0 0.0
2015-Jun-29 05:33N 30°27' W 091°12'0 0.0
2015-Jun-29 04:33N 30°27' W 091°12'0 0.0
2015-Jun-29 03:33N 30°27' W 091°12'0 0.1
2015-Jun-29 02:33N 30°27' W 091°12'0 0.4
2015-Jun-29 01:33N 30°27' W 091°12'0 0.0
2015-Jun-29 00:33N 30°27' W 091°12'0 0.0
2015-Jun-28 23:33N 30°27' W 091°12'0 0.0
2015-Jun-28 22:33N 30°27' W 091°12'0 0.0
2015-Jun-28 21:33N 30°27' W 091°12'0 0.0
2015-Jun-28 20:33N 30°27' W 091°12'0 0.0
2015-Jun-28 19:33N 30°27' W 091°12'0 0.0
2015-Jun-28 18:33N 30°27' W 091°12'0 0.0
2015-Jun-28 17:33N 30°27' W 091°12'0 0.0
2015-Jun-28 16:33N 30°27' W 091°12'0 0.0
2015-Jun-28 15:33N 30°27' W 091°12'0 0.0
2015-Jun-28 14:33N 30°27' W 091°12'0 0.0
2015-Jun-28 13:33N 30°27' W 091°12'0 0.0
2015-Jun-28 12:33N 30°27' W 091°12'0 0.0
2015-Jun-28 11:33N 30°27' W 091°12'0 0.0
2015-Jun-28 10:33N 30°27' W 091°12'1 1.2
2015-Jun-28 09:33N 30°26' W 091°12'5 4.9
2015-Jun-28 08:31N 30°21' W 091°14'5 4.5
2015-Jun-28 07:30N 30°20' W 091°09'4 3.9
2015-Jun-28 06:32N 30°19' W 091°13'7 1.7
2015-Jun-28 02:33N 30°15' W 091°07'4 0.1
2015-Jun-26 16:20N 30°13' W 091°03'8 4.1
2015-Jun-26 14:22N 30°17' W 091°11'3 3.4
2015-Jun-26 13:22N 30°19' W 091°09'5 6.6
2015-Jun-26 12:33N 30°21' W 091°14'8 8.2
2015-Jun-26 11:33N 30°29' W 091°12'3 3.0
2015-Jun-26 10:33N 30°31' W 091°15'2 1.9
2015-Jun-26 09:33N 30°32' W 091°14'5 4.9
2015-Jun-26 08:33N 30°35' W 091°19'5 4.7
2015-Jun-26 07:30N 30°40' W 091°21'8 5.6
2015-Jun-26 06:06N 30°44' W 091°28'6 7.9
2015-Jun-26 05:19N 30°45' W 091°35'6 6.2
2015-Jun-26 04:25N 30°49' W 091°32'  
Track history (hours):
 
Tides and Currents Weather Stations Pressure Air Temp Water Temp Dewpoint Dewpoint Depression Visibility Wind Speed Wind Dir Waves Ship Positions

P. B. Shah

Owner: INGRAM BARGE COMPANY, Nashville, TN. More information available from US FCC via Universal Licensing System and Coast Guard Vessel Documentation Center.

Last reported at 2015-Jun-29 20:21 UTC. Time now 2015-Jul-05 07:51 UTC.
Position N 30°45' W 091°26'.

Length 46 m; draft 3.1 m.

Type: Towing. MMSI: 366961480.

Date/timePositionNaut miles runAvg speedWind from/ knotsBaromVisibWave heightAir tempDewpointWater temp
2015-Jun-29 20:21N 30°45' W 091°26'3 4.0
2015-Jun-29 19:33N 30°45' W 091°22'5 4.7
2015-Jun-29 18:33N 30°40' W 091°20'4 4.0
2015-Jun-29 17:33N 30°36' W 091°18'3 2.9
2015-Jun-29 16:33N 30°34' W 091°16'3 2.9
2015-Jun-29 15:33N 30°31' W 091°16'1 1.4
2015-Jun-29 14:33N 30°30' W 091°15'3 3.0
2015-Jun-29 13:33N 30°31' W 091°12'4 4.0
2015-Jun-29 12:33N 30°27' W 091°12'0 0.1
2015-Jun-29 11:33N 30°27' W 091°12'0 0.0
2015-Jun-29 10:33N 30°27' W 091°12'0 0.0
2015-Jun-29 09:33N 30°27' W 091°12'0 0.0
2015-Jun-29 08:33N 30°27' W 091°12'0 0.0
2015-Jun-29 07:33N 30°27' W 091°12'0 0.0
2015-Jun-29 06:33N 30°27' W 091°12'0 0.0
2015-Jun-29 05:33N 30°27' W 091°12'0 0.0
2015-Jun-29 04:33N 30°27' W 091°12'0 0.0
2015-Jun-29 03:33N 30°27' W 091°12'0 0.1
2015-Jun-29 02:33N 30°27' W 091°12'0 0.4
2015-Jun-29 01:33N 30°27' W 091°12'0 0.0
2015-Jun-29 00:33N 30°27' W 091°12'0 0.0
2015-Jun-28 23:33N 30°27' W 091°12'0 0.0
2015-Jun-28 22:33N 30°27' W 091°12'0 0.0
2015-Jun-28 21:33N 30°27' W 091°12'0 0.0
2015-Jun-28 20:33N 30°27' W 091°12'0 0.0
2015-Jun-28 19:33N 30°27' W 091°12'0 0.0
2015-Jun-28 18:33N 30°27' W 091°12'0 0.0
2015-Jun-28 17:33N 30°27' W 091°12'0 0.0
2015-Jun-28 16:33N 30°27' W 091°12'0 0.0
2015-Jun-28 15:33N 30°27' W 091°12'0 0.0
2015-Jun-28 14:33N 30°27' W 091°12'0 0.0
2015-Jun-28 13:33N 30°27' W 091°12'0 0.0
2015-Jun-28 12:33N 30°27' W 091°12'0 0.0
2015-Jun-28 11:33N 30°27' W 091°12'0 0.0
2015-Jun-28 10:33N 30°27' W 091°12'1 1.2
2015-Jun-28 09:33N 30°26' W 091°12'5 4.9
2015-Jun-28 08:31N 30°21' W 091°14'5 4.5
2015-Jun-28 07:30N 30°20' W 091°09'4 3.9
2015-Jun-28 06:32N 30°19' W 091°13'7 1.7
2015-Jun-28 02:33N 30°15' W 091°07'4 0.1
2015-Jun-26 16:20N 30°13' W 091°03'8 4.1
2015-Jun-26 14:22N 30°17' W 091°11'3 3.4
2015-Jun-26 13:22N 30°19' W 091°09'5 6.6
2015-Jun-26 12:33N 30°21' W 091°14'8 8.2
2015-Jun-26 11:33N 30°29' W 091°12'3 3.0
2015-Jun-26 10:33N 30°31' W 091°15'2 1.9
2015-Jun-26 09:33N 30°32' W 091°14'5 4.9
2015-Jun-26 08:33N 30°35' W 091°19'5 4.7
2015-Jun-26 07:30N 30°40' W 091°21'8 5.6
2015-Jun-26 06:06N 30°44' W 091°28'6 7.9
2015-Jun-26 05:19N 30°45' W 091°35'6 6.2
2015-Jun-26 04:25N 30°49' W 091°32'  

Dump ship's entire track history